Time;durP1;ratioP1;P1;durP2;ratioP2;P2;SDS_P1;SDS_P2;PMS_P1;PMS_P2;Temp;Humidity;BMP_temperature;BMP_pressure;BME280_temperature;BME280_humidity;BME280_pressure;Samples;Min_cycle;Max_cycle;Signal;HPM_P1;HPM_P2
2022/07/10 00:00:37;;;;;;;10.20;6.25;;;15.10;79.30;;;;;;5003942;28;20145;-71
2022/07/10 00:03:04;;;;;;;11.57;6.38;;;15.00;79.60;;;;;;4995205;28;20047;-73
2022/07/10 00:05:30;;;;;;;13.02;7.10;;;15.00;79.60;;;;;;5010123;28;20026;-72
2022/07/10 00:07:56;;;;;;;12.63;7.53;;;14.90;79.80;;;;;;5009185;28;20406;-72
2022/07/10 00:10:23;;;;;;;10.00;6.97;;;14.90;79.90;;;;;;5009928;28;20030;-72
2022/07/10 00:12:50;;;;;;;13.23;7.65;;;14.80;80.40;;;;;;5004997;28;20092;-73
2022/07/10 00:15:17;;;;;;;16.50;8.38;;;14.80;80.40;;;;;;4999127;28;20096;-73
2022/07/10 00:17:43;;;;;;;15.68;7.93;;;14.70;80.50;;;;;;5007023;28;20049;-72
2022/07/10 00:20:10;;;;;;;13.43;7.55;;;14.70;80.90;;;;;;5009329;28;20037;-72
2022/07/10 00:22:37;;;;;;;10.68;7.43;;;14.70;81.10;;;;;;4998574;28;20042;-72
2022/07/10 00:25:05;;;;;;;12.77;7.25;;;14.70;81.00;;;;;;5004801;28;20026;-73
2022/07/10 00:27:30;;;;;;;12.77;7.80;;;14.80;81.10;;;;;;5009169;28;20041;-72
2022/07/10 00:29:57;;;;;;;13.13;7.63;;;14.80;81.10;;;;;;5009259;28;20038;-72
2022/07/10 00:32:23;;;;;;;11.20;7.18;;;14.70;81.20;;;;;;5008158;28;20578;-72
2022/07/10 00:34:49;;;;;;;16.00;8.30;;;14.70;81.10;;;;;;5001583;28;20397;-72
2022/07/10 00:37:14;;;;;;;11.82;7.63;;;14.70;81.00;;;;;;4995948;28;20034;-73
2022/07/10 00:39:40;;;;;;;11.57;7.38;;;14.70;81.10;;;;;;5000341;28;20026;-72
2022/07/10 00:42:10;;;;;;;17.20;8.10;;;14.60;81.20;;;;;;5007846;28;20050;-73
2022/07/10 00:44:36;;;;;;;13.75;7.78;;;14.60;81.30;;;;;;4993449;28;20027;-72
2022/07/10 00:47:06;;;;;;;14.27;8.23;;;14.60;81.70;;;;;;4997397;28;20034;-73
2022/07/10 00:49:33;;;;;;;14.75;8.25;;;14.60;81.90;;;;;;5010072;28;20092;-72
2022/07/10 00:52:01;;;;;;;15.20;7.93;;;14.60;81.90;;;;;;5001368;28;20746;-72
2022/07/10 00:54:28;;;;;;;17.05;7.85;;;14.60;82.00;;;;;;5004435;28;20084;-73
2022/07/10 00:56:54;;;;;;;13.18;8.15;;;14.50;82.00;;;;;;4990864;28;20034;-72
2022/07/10 00:59:21;;;;;;;12.43;7.72;;;14.50;82.20;;;;;;4994324;28;20042;-73
2022/07/10 01:01:48;;;;;;;17.67;8.20;;;14.50;82.20;;;;;;4995945;28;20534;-72
2022/07/10 01:04:13;;;;;;;10.05;7.03;;;14.50;82.20;;;;;;4997269;28;20037;-72
2022/07/10 01:06:39;;;;;;;12.43;8.00;;;14.40;82.10;;;;;;5002083;28;20475;-73
2022/07/10 01:09:05;;;;;;;11.32;7.97;;;14.50;82.00;;;;;;5008328;28;20493;-72
2022/07/10 01:11:33;;;;;;;12.23;8.27;;;14.50;82.00;;;;;;5008946;28;20057;-72
2022/07/10 01:13:59;;;;;;;11.38;8.18;;;14.40;81.90;;;;;;5008474;28;20073;-72
2022/07/10 01:16:24;;;;;;;16.45;8.88;;;14.40;81.90;;;;;;5004661;28;20069;-72
2022/07/10 01:18:50;;;;;;;13.85;8.90;;;14.50;81.80;;;;;;4994867;28;20402;-72
2022/07/10 01:21:31;;;;;;;14.90;9.07;;;14.30;81.60;;;;;;5008473;28;20038;-72
2022/07/10 01:23:57;;;;;;;13.55;8.20;;;14.20;81.90;;;;;;5013563;28;20034;-72
2022/07/10 01:26:24;;;;;;;16.55;9.00;;;14.30;82.10;;;;;;4995632;28;20041;-72
2022/07/10 01:28:51;;;;;;;14.73;8.80;;;14.30;82.30;;;;;;5008902;28;20367;-72
2022/07/10 01:31:27;;;;;;;12.60;7.85;;;14.30;82.40;;;;;;5007860;28;20061;-72
2022/07/10 01:33:54;;;;;;;11.38;7.88;;;14.20;82.50;;;;;;5000156;28;20081;-72
2022/07/10 01:36:21;;;;;;;11.25;7.78;;;14.30;82.50;;;;;;4993119;28;20483;-72
2022/07/10 01:38:47;;;;;;;16.17;8.70;;;14.30;82.60;;;;;;5005992;28;20474;-72
2022/07/10 01:41:12;;;;;;;13.07;7.93;;;14.30;82.30;;;;;;4997495;28;20139;-72
2022/07/10 01:43:42;;;;;;;11.65;7.50;;;14.30;82.30;;;;;;5003463;28;20081;-72
2022/07/10 01:46:10;;;;;;;14.05;8.00;;;14.30;82.30;;;;;;5009734;28;20379;-72
2022/07/10 01:48:37;;;;;;;12.00;7.43;;;14.30;82.20;;;;;;4992982;28;20102;-72
2022/07/10 01:51:03;;;;;;;12.30;7.88;;;14.30;82.30;;;;;;5012119;28;20046;-72
2022/07/10 01:53:29;;;;;;;13.82;8.60;;;14.20;82.00;;;;;;5004232;28;20038;-72
2022/07/10 01:55:55;;;;;;;11.38;7.38;;;14.20;81.90;;;;;;5010452;28;20034;-72
2022/07/10 01:58:21;;;;;;;10.88;7.57;;;14.20;81.70;;;;;;5012430;28;20085;-72
2022/07/10 02:00:46;;;;;;;14.25;8.23;;;14.20;81.60;;;;;;5012993;28;20057;-72
2022/07/10 02:05:57;;;;;;;12.27;8.70;;;14.20;81.60;;;;;;5011962;28;20041;-72
2022/07/10 02:08:22;;;;;;;15.40;8.65;;;14.10;81.60;;;;;;5007153;28;20035;-72
2022/07/10 02:10:49;;;;;;;12.85;8.82;;;14.10;81.50;;;;;;5000720;28;20030;-72
2022/07/10 02:13:17;;;;;;;13.75;8.63;;;14.10;81.60;;;;;;5010025;28;20045;-72
2022/07/10 02:15:43;;;;;;;14.02;8.60;;;14.10;81.60;;;;;;5004232;28;20058;-72
2022/07/10 02:18:09;;;;;;;11.98;8.70;;;14.10;81.70;;;;;;5011358;28;20058;-72
2022/07/10 02:20:36;;;;;;;13.95;9.02;;;14.00;81.70;;;;;;5012554;28;20119;-71
2022/07/10 02:23:02;;;;;;;12.93;9.98;;;14.00;81.90;;;;;;5004892;28;20042;-72
2022/07/10 02:25:27;;;;;;;11.50;8.07;;;14.00;81.80;;;;;;5001099;28;20054;-72
2022/07/10 02:27:53;;;;;;;12.93;8.23;;;13.90;81.90;;;;;;5000167;28;20065;-72
2022/07/10 02:30:19;;;;;;;12.48;8.45;;;14.00;82.10;;;;;;5000462;28;20429;-72
2022/07/10 02:32:45;;;;;;;13.13;8.45;;;14.00;82.10;;;;;;5004793;28;20045;-72
2022/07/10 02:35:10;;;;;;;13.38;8.45;;;14.00;82.10;;;;;;5002712;28;20042;-72
2022/07/10 02:37:36;;;;;;;12.95;8.48;;;14.00;82.30;;;;;;5008517;28;20513;-72
2022/07/10 02:40:02;;;;;;;13.60;9.02;;;13.90;82.20;;;;;;5011890;28;20034;-72
2022/07/10 02:42:27;;;;;;;14.13;8.23;;;13.90;82.30;;;;;;5001547;28;20106;-72
2022/07/10 02:44:53;;;;;;;11.70;8.18;;;13.90;82.40;;;;;;5001561;28;20030;-72
2022/07/10 02:47:19;;;;;;;11.63;7.88;;;13.90;82.50;;;;;;4999703;28;20501;-72
2022/07/10 02:49:44;;;;;;;13.88;8.43;;;13.90;82.40;;;;;;5004227;28;20040;-72
2022/07/10 02:52:10;;;;;;;12.00;8.25;;;13.80;82.40;;;;;;5005147;28;20045;-72
2022/07/10 02:54:37;;;;;;;14.02;8.80;;;13.80;82.30;;;;;;5003360;28;20441;-72
2022/07/10 02:57:03;;;;;;;12.00;8.73;;;13.80;82.30;;;;;;4997774;28;20038;-72
2022/07/10 02:59:29;;;;;;;11.85;8.40;;;13.70;82.20;;;;;;5008895;28;20034;-72
2022/07/10 03:01:54;;;;;;;9.95;7.90;;;13.80;82.00;;;;;;5003134;28;20033;-72
2022/07/10 03:04:20;;;;;;;12.73;8.13;;;13.70;81.90;;;;;;4994940;28;20050;-72
2022/07/10 03:06:46;;;;;;;12.70;8.38;;;13.60;82.00;;;;;;4999490;28;20402;-71
2022/07/10 03:09:11;;;;;;;11.05;8.50;;;13.70;82.00;;;;;;5004649;28;20474;-72
2022/07/10 03:11:37;;;;;;;12.02;8.38;;;13.60;81.90;;;;;;4992732;28;20030;-72
2022/07/10 03:14:03;;;;;;;10.95;7.38;;;13.60;81.90;;;;;;4996060;28;20038;-72
2022/07/10 03:16:29;;;;;;;11.88;7.88;;;13.60;82.00;;;;;;5001563;28;20049;-72
2022/07/10 03:18:55;;;;;;;17.02;9.00;;;13.60;81.90;;;;;;4992576;28;20026;-72
2022/07/10 03:21:20;;;;;;;12.35;8.40;;;13.60;81.90;;;;;;5004574;28;20118;-72
2022/07/10 03:23:46;;;;;;;11.15;8.38;;;13.60;82.10;;;;;;5006508;28;20047;-72
2022/07/10 03:26:12;;;;;;;13.60;9.30;;;13.60;82.30;;;;;;5003842;28;20475;-72
2022/07/10 03:28:37;;;;;;;14.77;9.45;;;13.50;82.30;;;;;;5013219;28;20109;-72
2022/07/10 03:31:03;;;;;;;12.13;8.75;;;13.50;82.60;;;;;;5004150;28;20406;-72
2022/07/10 03:33:28;;;;;;;13.45;8.90;;;13.40;82.80;;;;;;4998199;28;20053;-72
2022/07/10 03:35:54;;;;;;;13.88;8.80;;;13.50;82.90;;;;;;4991572;28;20049;-73
2022/07/10 03:38:20;;;;;;;13.65;9.23;;;13.50;83.00;;;;;;5001182;28;20042;-72
2022/07/10 03:40:47;;;;;;;11.93;8.60;;;13.50;83.00;;;;;;4991557;28;20043;-72
2022/07/10 03:43:14;;;;;;;13.93;8.85;;;13.40;83.00;;;;;;5004799;28;20727;-72
2022/07/10 03:45:40;;;;;;;13.90;9.63;;;13.50;82.90;;;;;;5008582;28;20112;-71
2022/07/10 03:48:06;;;;;;;13.60;8.85;;;13.50;82.90;;;;;;5000442;28;20128;-71
2022/07/10 03:50:32;;;;;;;12.85;8.05;;;13.50;82.90;;;;;;5010718;28;20045;-72
2022/07/10 03:52:58;;;;;;;13.00;8.68;;;13.60;82.80;;;;;;5001095;28;20042;-71
2022/07/10 03:55:24;;;;;;;11.95;8.35;;;13.60;82.70;;;;;;4991442;28;20036;-71
2022/07/10 03:57:56;;;;;;;13.07;8.70;;;13.60;82.40;;;;;;4998474;28;20038;-71
2022/07/10 04:00:23;;;;;;;11.30;8.07;;;13.60;82.40;;;;;;5001023;28;20126;-72
2022/07/10 04:02:56;;;;;;;11.80;8.32;;;13.60;82.10;;;;;;5002002;28;20523;-72
2022/07/10 04:05:21;;;;;;;13.45;7.45;;;13.60;81.90;;;;;;5019920;28;20045;-72
2022/07/10 04:07:47;;;;;;;10.55;7.63;;;13.60;81.70;;;;;;5008775;28;20030;-72
2022/07/10 04:10:13;;;;;;;11.93;7.95;;;13.60;81.60;;;;;;5010291;28;20057;-72
2022/07/10 04:12:38;;;;;;;11.70;8.15;;;13.60;81.40;;;;;;5008317;28;20050;-72
2022/07/10 04:15:05;;;;;;;12.65;8.07;;;13.60;81.40;;;;;;5001957;28;20100;-73
2022/07/10 04:17:32;;;;;;;11.00;8.35;;;13.60;81.60;;;;;;5002004;28;20405;-73
2022/07/10 04:19:58;;;;;;;12.65;8.50;;;13.60;81.80;;;;;;5010739;28;20053;-71
2022/07/10 04:22:24;;;;;;;12.35;8.23;;;13.60;81.90;;;;;;4992241;28;20402;-71
2022/07/10 04:24:56;;;;;;;14.65;9.40;;;13.60;82.00;;;;;;5008754;28;20026;-71
2022/07/10 04:27:22;;;;;;;11.68;8.60;;;13.60;81.90;;;;;;5000141;28;20031;-72
2022/07/10 04:29:48;;;;;;;12.52;8.90;;;13.60;82.30;;;;;;5005560;28;20036;-72
2022/07/10 04:32:15;;;;;;;13.02;8.85;;;13.70;82.40;;;;;;4998524;28;20038;-72
2022/07/10 04:34:41;;;;;;;12.20;8.73;;;13.80;82.30;;;;;;4998999;28;20037;-75
2022/07/10 04:37:07;;;;;;;15.60;8.98;;;13.80;82.30;;;;;;4995637;28;20069;-75
2022/07/10 04:39:34;;;;;;;12.98;9.15;;;13.90;82.30;;;;;;5009676;28;20477;-75
2022/07/10 04:42:01;;;;;;;14.45;8.63;;;14.00;82.40;;;;;;5002655;28;20042;-75
2022/07/10 04:44:26;;;;;;;15.60;9.70;;;14.10;82.30;;;;;;4998879;28;20037;-75
2022/07/10 04:46:53;;;;;;;14.90;9.30;;;14.10;82.10;;;;;;5001604;28;20042;-75
2022/07/10 04:49:19;;;;;;;19.42;9.60;;;14.20;82.00;;;;;;5008232;28;20030;-74
2022/07/10 04:51:44;;;;;;;14.73;8.85;;;14.20;82.00;;;;;;5000641;28;20081;-74
2022/07/10 04:54:10;;;;;;;17.70;11.50;;;14.20;82.00;;;;;;5009611;28;20045;-76
2022/07/10 04:56:36;;;;;;;15.68;10.27;;;14.20;81.90;;;;;;5002380;28;20046;-74
2022/07/10 04:59:02;;;;;;;15.85;10.27;;;14.30;82.10;;;;;;5007384;28;20022;-75
2022/07/10 05:01:27;;;;;;;12.18;9.07;;;14.30;82.00;;;;;;4998808;28;20027;-75
2022/07/10 05:03:53;;;;;;;15.15;9.95;;;14.30;82.00;;;;;;5004848;28;20037;-75
2022/07/10 05:06:19;;;;;;;15.13;8.45;;;14.30;82.00;;;;;;5011986;28;20049;-75
2022/07/10 05:08:45;;;;;;;11.52;8.68;;;14.40;82.00;;;;;;5004538;28;20132;-75
2022/07/10 05:11:10;;;;;;;13.10;8.68;;;14.50;82.00;;;;;;4999654;28;20533;-75
2022/07/10 05:13:36;;;;;;;16.42;10.40;;;14.60;82.00;;;;;;5008128;28;20339;-75
2022/07/10 05:16:03;;;;;;;12.98;9.25;;;14.60;81.20;;;;;;5007078;28;20431;-75
2022/07/10 05:18:29;;;;;;;14.93;9.23;;;14.70;81.40;;;;;;5005634;28;20412;-75
2022/07/10 05:20:55;;;;;;;12.60;8.32;;;15.30;81.50;;;;;;5004217;28;20033;-75
2022/07/10 05:23:20;;;;;;;10.88;7.00;;;17.00;77.10;;;;;;5010364;28;20112;-75
2022/07/10 05:25:46;;;;;;;12.57;5.82;;;18.80;70.70;;;;;;4997710;28;20029;-75
2022/07/10 05:28:15;;;;;;;8.90;4.70;;;20.60;64.60;;;;;;5012836;28;20037;-75
2022/07/10 05:30:43;;;;;;;11.25;5.75;;;22.10;59.20;;;;;;5008493;28;20122;-75
2022/07/10 05:33:09;;;;;;;10.07;5.75;;;23.10;55.20;;;;;;5000198;28;20046;-75
2022/07/10 05:35:35;;;;;;;7.30;3.97;;;23.90;52.70;;;;;;5013166;28;20044;-76
2022/07/10 05:38:01;;;;;;;9.15;4.50;;;24.60;50.40;;;;;;5008224;28;20042;-75
2022/07/10 05:40:27;;;;;;;6.60;3.80;;;25.20;48.40;;;;;;5003602;28;20034;-75
2022/07/10 05:42:53;;;;;;;9.85;4.85;;;25.20;47.80;;;;;;5010890;28;20152;-76
2022/07/10 05:45:18;;;;;;;9.60;4.40;;;25.40;46.60;;;;;;5010124;28;20030;-76
2022/07/10 05:47:44;;;;;;;8.38;3.80;;;25.40;47.70;;;;;;5018059;28;20085;-75
2022/07/10 05:50:11;;;;;;;7.93;3.85;;;25.60;44.90;;;;;;5011985;28;20034;-75
2022/07/10 05:52:37;;;;;;;10.60;4.57;;;25.60;45.30;;;;;;5004091;28;20457;-76
2022/07/10 05:55:04;;;;;;;9.25;4.47;;;25.60;45.50;;;;;;5010249;28;20064;-76
2022/07/10 05:57:31;;;;;;;9.35;4.15;;;25.00;46.10;;;;;;5012645;28;20034;-75
2022/07/10 05:59:57;;;;;;;9.15;4.45;;;24.50;47.70;;;;;;4995264;28;20107;-75
2022/07/10 06:02:22;;;;;;;10.40;5.10;;;23.80;48.60;;;;;;5003545;28;20474;-75
2022/07/10 06:04:49;;;;;;;7.93;4.15;;;22.60;52.10;;;;;;5013410;28;20091;-76
2022/07/10 06:07:15;;;;;;;9.45;4.93;;;21.70;56.00;;;;;;5003067;28;20457;-76
2022/07/10 06:09:41;;;;;;;8.48;5.57;;;20.80;58.30;;;;;;5006760;28;20030;-76
2022/07/10 06:12:06;;;;;;;9.02;5.05;;;20.30;59.70;;;;;;5011194;28;20053;-76
2022/07/10 06:14:32;;;;;;;10.10;4.72;;;20.00;61.30;;;;;;5006360;28;20474;-75
2022/07/10 06:16:58;;;;;;;10.38;4.63;;;19.60;62.40;;;;;;5018652;28;20496;-75
2022/07/10 06:19:24;;;;;;;7.80;4.25;;;19.50;64.20;;;;;;5012300;28;20117;-75
2022/07/10 06:22:30;;;;;;;8.18;4.43;;;19.50;63.70;;;;;;4998163;28;20031;-75
2022/07/10 06:24:35;;;;;;;8.43;4.60;;;19.40;64.10;;;;;;5005077;28;20045;-75
2022/07/10 06:27:01;;;;;;;8.18;4.10;;;19.30;64.40;;;;;;5011703;28;20030;-76
2022/07/10 06:29:27;;;;;;;8.48;4.18;;;19.30;64.10;;;;;;5001492;28;20045;-75
2022/07/10 06:31:52;;;;;;;7.90;4.35;;;19.20;64.00;;;;;;5002286;28;20453;-76
2022/07/10 06:34:19;;;;;;;11.85;4.88;;;19.20;63.40;;;;;;5010529;28;20038;-75
2022/07/10 06:36:45;;;;;;;10.18;4.43;;;19.10;63.50;;;;;;4993910;28;20405;-76
2022/07/10 06:39:10;;;;;;;7.85;4.53;;;19.10;64.50;;;;;;5007091;28;20058;-76
2022/07/10 06:41:36;;;;;;;10.70;5.18;;;19.30;65.20;;;;;;5008709;28;20418;-75
2022/07/10 06:44:03;;;;;;;9.35;4.68;;;19.50;64.90;;;;;;4998028;28;20030;-76
2022/07/10 06:46:29;;;;;;;10.70;3.60;;;19.40;64.00;;;;;;4999661;28;20034;-75
2022/07/10 06:48:54;;;;;;;10.85;3.17;;;19.50;63.90;;;;;;4996469;28;20416;-75
2022/07/10 06:51:20;;;;;;;7.10;3.33;;;19.60;63.60;;;;;;5001426;28;20099;-76
2022/07/10 06:53:46;;;;;;;9.73;3.85;;;19.70;63.10;;;;;;5010198;28;20505;-76
2022/07/10 06:56:14;;;;;;;7.13;3.70;;;19.80;63.10;;;;;;5003776;28;20046;-76
2022/07/10 06:58:39;;;;;;;8.63;4.00;;;19.70;63.00;;;;;;5009920;28;20057;-75
2022/07/10 07:01:05;;;;;;;8.18;3.97;;;19.70;62.70;;;;;;5008680;28;20453;-76
2022/07/10 07:03:31;;;;;;;7.95;2.90;;;19.60;64.00;;;;;;5003996;28;20041;-75
2022/07/10 07:05:56;;;;;;;9.38;3.33;;;19.70;62.40;;;;;;5009521;28;20054;-76
2022/07/10 07:08:22;;;;;;;9.57;3.95;;;19.60;62.70;;;;;;5009823;28;20066;-76
2022/07/10 07:10:48;;;;;;;9.65;3.97;;;19.60;62.30;;;;;;5009792;28;20452;-75
2022/07/10 07:13:13;;;;;;;10.18;4.05;;;19.60;63.60;;;;;;5001036;28;20443;-76
2022/07/10 07:15:42;;;;;;;8.90;3.88;;;19.50;63.50;;;;;;5006783;28;20544;-76
2022/07/10 07:18:12;;;;;;;8.40;4.03;;;19.70;64.00;;;;;;4996247;28;20044;-76
2022/07/10 07:23:22;;;;;;;7.50;3.50;;;19.70;63.20;;;;;;5011502;28;20053;-75
2022/07/10 07:25:48;;;;;;;11.68;4.30;;;19.90;62.10;;;;;;5009904;28;20036;-75
2022/07/10 07:28:19;;;;;;;7.63;2.63;;;20.00;62.80;;;;;;5003824;28;20089;-76
2022/07/10 07:30:45;;;;;;;11.07;3.30;;;20.00;61.20;;;;;;5004042;28;20037;-75
2022/07/10 07:33:11;;;;;;;7.45;3.00;;;19.90;61.50;;;;;;5001275;28;20038;-75
2022/07/10 07:35:37;;;;;;;6.40;3.20;;;19.90;61.30;;;;;;5011268;28;20459;-75
2022/07/10 07:38:03;;;;;;;9.15;3.20;;;19.90;61.90;;;;;;5009147;28;20030;-76
2022/07/10 07:40:29;;;;;;;6.72;2.70;;;20.20;61.50;;;;;;5011121;28;20030;-75
2022/07/10 07:42:55;;;;;;;7.70;2.88;;;20.10;61.20;;;;;;5008656;28;20129;-75
2022/07/10 07:45:22;;;;;;;8.18;3.35;;;20.10;61.70;;;;;;5005417;28;20497;-76
2022/07/10 07:47:56;;;;;;;8.57;2.85;;;20.00;61.70;;;;;;5002078;28;20045;-75
2022/07/10 07:50:25;;;;;;;7.68;3.20;;;20.10;60.90;;;;;;5009168;28;20352;-75
2022/07/10 07:52:51;;;;;;;7.18;2.75;;;20.20;60.90;;;;;;4997374;28;20046;-75
2022/07/10 07:55:18;;;;;;;7.57;3.10;;;20.30;60.40;;;;;;5001451;28;20113;-75
2022/07/10 07:57:44;;;;;;;6.30;2.60;;;20.40;59.80;;;;;;5001772;28;20037;-75
2022/07/10 08:00:12;;;;;;;7.63;2.85;;;20.50;59.00;;;;;;5008481;28;20600;-75
2022/07/10 08:02:39;;;;;;;6.35;3.08;;;20.60;58.40;;;;;;5008924;28;20037;-75
2022/07/10 08:05:05;;;;;;;7.68;2.92;;;20.80;58.30;;;;;;5007620;28;20030;-75
2022/07/10 08:07:39;;;;;;;5.38;2.80;;;20.80;57.60;;;;;;4995742;28;20053;-75
2022/07/10 08:10:08;;;;;;;9.70;3.42;;;21.00;57.80;;;;;;5010184;28;20433;-75
2022/07/10 08:12:33;;;;;;;7.45;3.15;;;20.90;57.50;;;;;;5003980;28;20070;-75
2022/07/10 08:14:59;;;;;;;12.77;3.38;;;21.00;58.30;;;;;;5005599;28;20069;-76
2022/07/10 08:17:26;;;;;;;7.47;2.95;;;21.20;56.80;;;;;;5005960;28;20491;-76
2022/07/10 08:19:52;;;;;;;8.98;3.45;;;21.20;57.60;;;;;;4997927;28;20038;-75
2022/07/10 08:22:17;;;;;;;8.40;3.35;;;21.30;58.80;;;;;;5000346;28;20040;-76
2022/07/10 08:24:43;;;;;;;7.05;2.55;;;21.50;56.60;;;;;;5008570;28;20117;-75
2022/07/10 08:27:09;;;;;;;6.80;2.72;;;21.60;56.10;;;;;;5001420;28;20042;-76
2022/07/10 08:29:34;;;;;;;6.22;2.75;;;21.60;56.10;;;;;;5016068;28;20201;-76
2022/07/10 08:32:00;;;;;;;7.15;2.90;;;21.50;56.20;;;;;;5000549;28;20077;-76
2022/07/10 08:34:27;;;;;;;7.95;3.15;;;21.50;55.90;;;;;;5000069;28;20052;-76
2022/07/10 08:36:53;;;;;;;8.40;3.25;;;21.50;56.30;;;;;;5001760;28;20554;-76
2022/07/10 08:39:22;;;;;;;7.72;2.90;;;21.30;57.50;;;;;;5006294;28;20121;-76
2022/07/10 08:41:51;;;;;;;7.65;2.30;;;21.30;56.90;;;;;;5008340;28;20034;-76
2022/07/10 08:44:17;;;;;;;7.20;3.22;;;21.60;57.00;;;;;;5002089;28;20096;-76
2022/07/10 08:46:44;;;;;;;10.63;3.00;;;21.60;55.30;;;;;;5000884;28;20099;-76
2022/07/10 08:49:13;;;;;;;9.02;2.95;;;21.60;55.70;;;;;;5002412;28;20041;-76
2022/07/10 08:52:08;;;;;;;10.02;2.97;;;21.70;54.80;;;;;;5002045;28;20091;-76
2022/07/10 08:54:33;;;;;;;6.55;2.63;;;21.80;56.90;;;;;;5000183;28;20432;-76
2022/07/10 08:57:01;;;;;;;9.45;2.97;;;22.00;56.20;;;;;;5003683;28;20038;-76
2022/07/10 08:59:28;;;;;;;7.00;3.10;;;22.30;55.00;;;;;;5001025;28;20436;-76
2022/07/10 09:01:54;;;;;;;6.85;2.65;;;22.50;54.50;;;;;;5015569;28;20049;-76
2022/07/10 09:04:22;;;;;;;8.32;3.45;;;22.40;55.10;;;;;;5010377;28;20088;-76
2022/07/10 09:06:48;;;;;;;7.82;3.05;;;22.50;55.60;;;;;;5007514;28;20048;-75
2022/07/10 09:09:14;;;;;;;7.22;3.28;;;22.50;55.50;;;;;;5008184;28;20386;-75
2022/07/10 09:11:42;;;;;;;9.27;3.28;;;22.50;54.70;;;;;;5008121;28;20041;-77
2022/07/10 09:14:10;;;;;;;9.65;3.28;;;22.60;54.80;;;;;;4991513;28;20129;-75
2022/07/10 09:16:37;;;;;;;7.70;2.78;;;22.40;54.50;;;;;;4996243;28;20478;-75
2022/07/10 09:19:25;;;;;;;8.65;2.75;;;22.80;54.40;;;;;;4999172;28;20041;-76
2022/07/10 09:21:59;;;;;;;5.95;2.38;;;23.00;53.40;;;;;;5000582;28;20030;-75
2022/07/10 09:24:25;;;;;;;7.55;2.58;;;23.20;52.60;;;;;;5008414;28;20103;-75
2022/07/10 09:26:57;;;;;;;7.32;2.95;;;23.60;50.70;;;;;;5007610;28;20430;-75
2022/07/10 09:29:23;;;;;;;6.07;2.90;;;23.60;50.50;;;;;;5000533;28;20038;-75
2022/07/10 09:31:52;;;;;;;8.60;3.00;;;23.60;51.10;;;;;;4998059;28;20034;-75
2022/07/10 09:34:35;;;;;;;6.95;2.55;;;23.60;49.60;;;;;;5002150;28;20525;-75
2022/07/10 09:37:24;;;;;;;7.82;2.40;;;23.90;49.80;;;;;;5003298;28;20471;-75
2022/07/10 09:39:55;;;;;;;6.53;2.92;;;23.80;50.90;;;;;;5012533;28;20049;-75
2022/07/10 09:42:34;;;;;;;7.70;2.92;;;23.70;50.30;;;;;;5011631;28;20045;-75
2022/07/10 09:45:13;;;;;;;10.32;2.92;;;24.00;49.70;;;;;;5006322;28;20053;-75
2022/07/10 09:47:39;;;;;;;7.53;2.60;;;24.30;48.90;;;;;;5011080;28;20446;-75
2022/07/10 09:50:22;;;;;;;7.50;2.90;;;24.50;49.20;;;;;;5007015;28;20042;-75
2022/07/10 09:52:51;;;;;;;8.75;3.08;;;24.70;47.90;;;;;;5011615;28;20042;-75
2022/07/10 09:55:20;;;;;;;5.80;2.40;;;24.70;48.90;;;;;;5011619;28;20363;-75
2022/07/10 09:57:53;;;;;;;6.65;2.60;;;24.80;47.90;;;;;;5000096;28;20045;-75
2022/07/10 10:00:19;;;;;;;7.38;2.35;;;24.50;47.70;;;;;;5000146;28;20062;-75
2022/07/10 10:02:46;;;;;;;7.95;2.53;;;24.80;47.30;;;;;;5006361;28;20041;-75
2022/07/10 10:05:13;;;;;;;6.32;2.17;;;25.30;46.30;;;;;;5002014;28;20043;-75
2022/07/10 10:07:39;;;;;;;10.57;2.10;;;25.20;46.90;;;;;;5003475;28;20049;-75
2022/07/10 10:10:07;;;;;;;6.35;2.17;;;25.00;46.60;;;;;;5004738;28;20054;-75
2022/07/10 10:12:42;;;;;;;9.95;2.85;;;24.30;48.10;;;;;;4996026;28;20547;-75
2022/07/10 10:15:11;;;;;;;5.28;2.20;;;24.60;47.90;;;;;;5011755;28;20048;-75
2022/07/10 10:17:40;;;;;;;5.82;2.33;;;25.00;47.70;;;;;;4996279;28;20125;-75
2022/07/10 10:22:55;;;;;;;6.72;1.95;;;25.70;45.90;;;;;;5010266;28;20056;-75
2022/07/10 10:25:23;;;;;;;6.43;2.58;;;25.80;46.50;;;;;;5005888;28;20038;-76
2022/07/10 10:27:50;;;;;;;10.65;2.25;;;25.80;44.50;;;;;;4999159;28;20042;-76
2022/07/10 10:30:17;;;;;;;5.55;1.70;;;25.10;47.10;;;;;;5002770;28;20037;-75
2022/07/10 10:32:43;;;;;;;7.30;2.22;;;25.30;47.40;;;;;;5010537;28;20423;-76
2022/07/10 10:35:09;;;;;;;4.28;2.05;;;25.10;46.30;;;;;;5010073;28;20038;-75
2022/07/10 10:37:43;;;;;;;5.05;1.88;;;25.00;46.40;;;;;;5004785;28;20085;-76
2022/07/10 10:40:11;;;;;;;4.43;1.80;;;25.10;47.70;;;;;;4994611;28;20108;-75
2022/07/10 10:42:43;;;;;;;7.13;2.05;;;25.20;47.10;;;;;;5003304;28;20046;-76
2022/07/10 10:45:32;;;;;;;7.78;2.40;;;25.30;46.60;;;;;;5011032;28;20053;-76
2022/07/10 10:48:09;;;;;;;7.95;2.40;;;25.10;47.90;;;;;;4994431;28;20054;-75
2022/07/10 10:50:45;;;;;;;5.45;2.40;;;25.00;47.80;;;;;;5004055;28;20027;-76
2022/07/10 10:53:26;;;;;;;6.75;2.28;;;25.30;47.40;;;;;;5007504;28;20519;-76
2022/07/10 10:56:04;;;;;;;8.50;2.42;;;25.60;48.60;;;;;;5009470;28;20037;-76
2022/07/10 10:58:39;;;;;;;6.30;2.50;;;25.80;46.60;;;;;;5012169;28;20045;-76
2022/07/10 11:01:05;;;;;;;6.53;1.90;;;25.70;47.90;;;;;;5008060;28;20125;-75
2022/07/10 11:03:34;;;;;;;6.53;2.70;;;25.90;46.70;;;;;;4999727;28;20034;-75
2022/07/10 11:06:02;;;;;;;5.95;2.40;;;25.60;45.40;;;;;;5012243;28;20045;-75
2022/07/10 11:08:39;;;;;;;5.82;2.30;;;25.50;46.60;;;;;;5011109;28;20038;-75
2022/07/10 11:11:31;;;;;;;7.25;2.33;;;25.50;47.10;;;;;;5001554;28;20521;-75
2022/07/10 11:14:00;;;;;;;5.97;2.25;;;25.60;47.10;;;;;;5015254;28;20049;-75
2022/07/10 11:16:26;;;;;;;5.70;2.10;;;25.50;46.30;;;;;;5006559;28;20100;-75
2022/07/10 11:18:55;;;;;;;6.55;2.03;;;25.50;47.20;;;;;;5006992;28;20034;-74
2022/07/10 11:21:25;;;;;;;6.45;2.10;;;25.50;47.10;;;;;;4998575;28;20128;-75
2022/07/10 11:24:04;;;;;;;5.30;1.85;;;25.00;48.30;;;;;;5007524;28;20041;-76
2022/07/10 11:26:38;;;;;;;7.47;2.20;;;25.00;48.90;;;;;;4997518;28;20395;-76
2022/07/10 11:29:06;;;;;;;6.65;1.90;;;25.10;48.30;;;;;;4999924;28;20390;-76
2022/07/10 11:31:37;;;;;;;5.93;2.05;;;25.20;47.50;;;;;;5007030;28;20437;-76
2022/07/10 11:34:04;;;;;;;5.28;1.63;;;25.60;46.90;;;;;;5003747;28;20046;-76
2022/07/10 11:36:31;;;;;;;4.55;1.70;;;25.30;47.00;;;;;;4994520;28;20029;-76
2022/07/10 11:39:01;;;;;;;6.80;1.92;;;25.00;47.30;;;;;;5008695;28;20040;-75
2022/07/10 11:41:27;;;;;;;4.40;1.70;;;25.10;47.90;;;;;;5010298;28;20037;-75
2022/07/10 11:43:55;;;;;;;4.93;2.08;;;25.40;47.90;;;;;;5004088;28;20501;-76
2022/07/10 11:46:23;;;;;;;6.43;1.63;;;24.90;46.90;;;;;;5002162;28;20061;-75
2022/07/10 11:48:52;;;;;;;4.68;1.60;;;25.40;47.60;;;;;;4996516;28;20046;-75
2022/07/10 11:51:26;;;;;;;5.97;1.85;;;25.40;46.90;;;;;;5003918;28;20034;-75
2022/07/10 11:54:11;;;;;;;5.90;1.67;;;25.20;47.00;;;;;;5004276;28;20048;-75
2022/07/10 11:56:40;;;;;;;6.32;1.92;;;25.10;46.80;;;;;;5000219;28;20466;-76
2022/07/10 11:59:08;;;;;;;4.88;2.08;;;25.50;47.00;;;;;;4997148;28;20054;-76
2022/07/10 12:01:40;;;;;;;5.93;1.77;;;25.50;46.80;;;;;;4999536;28;20030;-75
2022/07/10 12:04:08;;;;;;;4.78;1.77;;;25.10;48.70;;;;;;4998776;28;20401;-76
2022/07/10 12:06:42;;;;;;;6.07;1.85;;;25.20;47.50;;;;;;4999421;28;20405;-75
2022/07/10 12:09:09;;;;;;;3.38;1.60;;;25.20;48.60;;;;;;5000900;28;20402;-76
2022/07/10 12:11:36;;;;;;;5.13;1.67;;;25.50;47.50;;;;;;4991979;28;20041;-75
2022/07/10 12:14:21;;;;;;;7.53;2.13;;;25.60;46.60;;;;;;5005501;28;20127;-77
2022/07/10 12:16:49;;;;;;;4.45;1.70;;;25.70;46.80;;;;;;4997104;28;20143;-76
2022/07/10 12:19:17;;;;;;;4.07;1.60;;;25.90;47.00;;;;;;5002336;28;20401;-75
2022/07/10 12:21:45;;;;;;;6.85;2.35;;;25.70;46.70;;;;;;5004935;28;20044;-76
2022/07/10 12:24:12;;;;;;;5.57;1.60;;;25.60;46.50;;;;;;5005787;28;20045;-75
2022/07/10 12:26:41;;;;;;;5.07;1.38;;;25.80;46.70;;;;;;4994969;28;20034;-76
2022/07/10 12:29:24;;;;;;;5.13;1.50;;;25.70;45.90;;;;;;5010834;28;20077;-76
2022/07/10 12:31:51;;;;;;;3.88;1.50;;;25.80;45.60;;;;;;4999111;28;20501;-74
2022/07/10 12:34:18;;;;;;;5.40;1.40;;;25.70;46.30;;;;;;5002400;28;20050;-75
2022/07/10 12:36:49;;;;;;;5.00;1.40;;;25.70;46.00;;;;;;5012180;28;20496;-76
2022/07/10 12:39:25;;;;;;;4.75;1.50;;;25.20;47.30;;;;;;5004107;28;20125;-75
2022/07/10 12:42:03;;;;;;;5.18;1.95;;;25.50;46.60;;;;;;5004505;28;20100;-76
2022/07/10 12:44:49;;;;;;;4.50;1.60;;;25.60;46.90;;;;;;5002753;28;20113;-75
2022/07/10 12:47:17;;;;;;;4.38;1.80;;;26.00;45.90;;;;;;5015198;28;20125;-76
2022/07/10 12:49:52;;;;;;;6.50;1.80;;;25.90;45.20;;;;;;5009880;28;20509;-75
2022/07/10 12:52:21;;;;;;;3.72;1.80;;;25.60;46.30;;;;;;4999783;28;20077;-76